MyTimes logo

TIMES

Webb Imagery

1/02/2003
Channel Challenge
550m Swim / 2.0km Run

(Click on competitor name to view personalised results)

Name
Race #
Category
Time
(h:mm:ss)
Avg Speed
km/hr
OAll
Place
Cat
Place
QUIRK Bryce#1Senior Male0:11:06 13.8 11
MC KENZIE Craig#178Senior Male0:11:20 13.5 22
HARRIS Robert#177Senior Male0:11:23 13.4 33
RISELEY Peter#155Senior Male0:11:40 13.1 44
COOPER Brett#609Junior Male0:11:47 13 51
RIX Joshua#2Senior Male0:11:58 12.8 65
BIRCH Andrew#514Junior Male0:12:09 12.6 72
FORD Brenton#513Junior Male0:12:12 12.5 83
REID Penny#384Senior Female0:12:33 12.2 91
ATTARD James#79Senior Male0:12:42 12 106
EVANS Brad#156Senior Male0:12:42 12 117
VELLIN Marc#18Senior Male0:12:58 11.8 128
BOLTON Peter#63140-49 Male0:12:59 11.8 131
ROWSELL Jason#112Senior Male0:13:10 11.6 149
PAGE Tiger Crus#84Senior Male0:13:12 11.6 1510
PETERSEN Scott#82Senior Male0:13:21 11.5 1611
DESSENT Michael#63Senior Male0:13:26 11.4 1712
RAINEY Peter#35Senior Male0:13:26 11.4 1813
HENTSCHEL Vanessa#383Senior Female0:13:33 11.3 192
O'DONNELL Louise#327Senior Female0:13:40 11.2 203
GAILBRATIH Dana#58840-49 Male0:13:45 11.1 212
GEARD Ben#190Senior Male0:13:48 11.1 2214
DELANEY Ashley#632Junior Male0:13:51 11 234
NAK Rooney#48Senior Male0:13:52 11 2415
PANTON David#57640-49 Male0:13:52 11 253
BRUCE Stephen#15Senior Male0:13:54 11 2616
GORDON Michael#53140-49 Male0:13:55 11 274
PATTERSON Alexander#621Junior Male0:13:56 11 285
MARCHESANI Anthony#113Senior Male0:13:56 11 2917
TAYLOR Paul#56Senior Male0:13:58 11 3018
MITCHELL Caitie#307Junior Female0:13:58 11 311
FLEISNER Rob#57540-49 Male0:14:00 10.9 325
HIRD Andrew#512Junior Male0:14:01 10.9 336
ARMSTRONG Graeme#616Male 50+0:14:01 10.9 341
CAMPBELL Brad#85Senior Male0:14:04 10.9 3519
BARNES Trevor#47Senior Male0:14:08 10.8 3620
YUSKO William#52540-49 Male0:14:10 10.8 376
SMITH Tegan#380Junior Female0:14:17 10.7 382
DALLINGER Chris#76Senior Male0:14:18 10.7 3921
MOUNSEY Mark#52340-49 Male0:14:22 10.6 407
HUNT Shane#134Senior Male0:14:30 10.6 4122
JENE Charlie#508Junior Male0:14:31 10.5 427
BATTYE Trent#54Senior Male0:14:34 10.5 4323
COOMBS Ben#605Junior Male0:14:35 10.5 448
NICHOLSON Steven#149Senior Male0:14:37 10.5 4524
DAVIS Rhys#115Senior Male0:14:39 10.4 4625
CORBETT Jim#173Senior Male0:14:39 10.4 4726
FORD Courtney#312Junior Female0:14:42 10.4 483
HUMPHREY Nicholas#11Senior Male0:14:43 10.4 4927
INNES Chris#59Senior Male0:14:48 10.3 5028
NORMAN Jeffrey#62440-49 Male0:14:50 10.3 518
YUSKO Daniel#46Senior Male0:14:52 10.3 5229
MITCHELL Fiona#314Senior Female0:14:54 10.3 534
PITTS Graeme#63540-49 Male0:14:54 10.3 549
CROFT Greg#61140-49 Male0:14:54 10.3 5510
HOUGHTON Alex#563Junior Male0:14:55 10.3 569
WALKER Justin#55Senior Male0:14:57 10.2 5730
ROLLAND Thierry#37Senior Male0:14:57 10.2 5831
DAVY Jamie#163Senior Male0:14:58 10.2 5932
POLIZZI Alexander#564Junior Male0:15:00 10.2 6010
WARNER Don#548Male 50+0:15:01 10.2 612
VOS Howard#168Senior Male0:15:03 10.2 6233
PANEBIANCO Dean#634Junior Male0:15:08 10.1 6311
MOREHEAN Craven#132Senior Male0:15:08 10.1 6434
PEWTRESS Stephen#26Senior Male0:15:09 10.1 6535
GARRETT Geoff#69Senior Male0:15:09 10.1 6636
HENDERSON Chloe#373Junior Female0:15:16 10 674
CAHILL Andrew#158Senior Male0:15:17 10 6837
AITKEN Harry#502Junior Male0:15:19 10 6912
REID Jason#83Senior Male0:15:21 10 7038
BUTTIFANT David#193Senior Male0:15:24 9.9 7139
MC HENRY David#568Junior Male0:15:25 9.9 7213
CAPLE Alex#567Junior Male0:15:25 9.9 7314
CROW Andew#127Senior Male0:15:26 9.9 7440
O'CONNELL Sarah#334Senior Female0:15:27 9.9 755
HARRIS Mark#17Senior Male0:15:28 9.9 7641
HUNTER Robyn#343Senior Female0:15:29 9.9 776
ELLARD Shane#36Senior Male0:15:30 9.9 7842
MC DOUGALL Andrew#133Senior Male0:15:31 9.9 7943
TAYLOR Chris#94Senior Male0:15:35 9.8 8044
STEVENSON James#129Senior Male0:15:35 9.8 8145
WETTENHALL Georgie#408Senior Female0:15:35 9.8 827
MONOGHAN Matthew#170Senior Male0:15:36 9.8 8346
CURTIS Brad#12Senior Male0:15:37 9.8 8447
EVANS Bree#331Senior Female0:15:39 9.8 858
LEVERSHA David#550Male 50+0:15:40 9.8 863
BATZA Jarrad#73Senior Male0:15:41 9.8 8748
FOWLER Jay#503Junior Male0:15:42 9.7 8815
MARSHALL Luke#75Senior Male0:15:44 9.7 8949
OBERHOFFER Helen#326Senior Female0:15:46 9.7 909
POTTER John#169Senior Male0:15:48 9.7 9150
HARBISON Derek#57240-49 Male0:15:49 9.7 9211
HANLEY Philip#61440-49 Male0:15:51 9.7 9312
DICKSON James#591Junior Male0:15:53 9.6 9416
CLARKE Rob#92Senior Male0:15:54 9.6 9551
EDMUNDS Grant#128Senior Male0:15:55 9.6 9652
FRANKLIN Bret#179Senior Male0:15:56 9.6 9753
SCHILLING Nick#110Senior Male0:15:58 9.6 9854
WILSON Alastair#93Senior Male0:16:00 9.6 9955
CHISHOLM Andy#44Senior Male0:16:01 9.6 10056
BYRNES Paul#86Senior Male0:16:02 9.5 10157
KIDD Christian#139Senior Male0:16:03 9.5 10258
PATERSON Jemma#309Junior Female0:16:03 9.5 1035
FERGUSON Andrew#70Senior Male0:16:05 9.5 10459
HARKNESS John#87Senior Male0:16:07 9.5 10560
FLEISNER Paul#546Male 50+0:16:07 9.5 1064
BLAKE Darren#142Senior Male0:16:08 9.5 10761
RIX Susannah#310Junior Female0:16:10 9.5 1086
CLINTON Bradley#162Senior Male0:16:11 9.5 10962
LIDDELL Maryanne#428Senior Female0:16:11 9.5 11010
PARSONS Donal#38Senior Male0:16:15 9.4 11163
TRITTON Scott#89Senior Male0:16:17 9.4 11264
CHIPPINDALL Sam#117Senior Male0:16:17 9.4 11365
BARRY-MACAULAY David#171Senior Male0:16:20 9.4 11466
COLLINS Chris#150Senior Male0:16:21 9.4 11567
COLLING Brek#52Senior Male0:16:22 9.3 11668
MOSBAUER Rob#165Senior Male0:16:22 9.3 11769
DOUGLAS Adam#58Senior Male0:16:23 9.3 11870
BENNETT Nick#16Senior Male0:16:24 9.3 11971
ROWSON Paul#78Senior Male0:16:24 9.3 12072
FITZGERALD Kieran#600Junior Male0:16:26 9.3 12117
HEWETT Noel#58940-49 Male0:16:27 9.3 12213
CENNE Heath#77Senior Male0:16:28 9.3 12373
MOZURAS David#144Senior Male0:16:31 9.3 12474
ORSULOVA Helena#371Senior Female0:16:31 9.3 12511
ACKLAND Nathan#102Senior Male0:16:31 9.3 12675
HOLLAS Andrew#51Senior Male0:16:34 9.2 12776
VALENA Rex#557Male 50+0:16:34 9.2 1285
FRANCETT John#116Senior Male0:16:35 9.2 12977
CONNELL Michael#56940-49 Male0:16:36 9.2 13014
BEHRSIN John#52640-49 Male0:16:38 9.2 13115
O'CONNELL Chrissy#427Senior Female0:16:43 9.2 13212
DAVIES Clive#628Male 50+0:16:44 9.1 1336
FISHER Kevin#56240-49 Male0:16:45 9.1 13416
HUGHES Jed#604Junior Male0:16:48 9.1 13518
PERRY Chris#510Junior Male0:16:49 9.1 13619
COULSON Rob#59440-49 Male0:16:49 9.1 13717
BUTT Chloe#305Junior Female0:16:50 9.1 1387
LARSON Kris#123Senior Male0:16:53 9.1 13978
WHITBURN Nicole#423Senior Female0:16:53 9.1 14013
CARTER Dean#539Male 50+0:16:53 9.1 1417
MC ALLISTER Danny#140Senior Male0:16:54 9.1 14279
EYRE David#59240-49 Male0:16:55 9 14318
SMITH John#39Senior Male0:16:56 9 14480
BOND Marcus#45Senior Male0:16:57 9 14581
ROBINSON Peter#130Senior Male0:16:59 9 14682
WATCHORN Troy#50Senior Male0:16:59 9 14783
PENMAN Neil#63340-49 Male0:17:00 9 14819
VALENA Tony#556Junior Male0:17:01 9 14920
RINGROSE Paul#542Male 50+0:17:02 9 1508
BRADEN Michael#174Senior Male0:17:02 9 15184
FINNIS Matt#126Senior Male0:17:03 9 15285
CARROLL Chris#28Senior Male0:17:04 9 15386
FINNIS D'arne#401Senior Female0:17:04 9 15414
WILKINSON Emily#369Senior Female0:17:04 9 15515
LEVERSHA Lyn#35540-49 Female0:17:06 8.9 1561
HASKIN Jonathon#25Senior Male0:17:06 8.9 15787
CLARKE Andrew#145Senior Male0:17:08 8.9 15888
TROJAN Nadia#315Senior Female0:17:13 8.9 15916
BUCKLEY Laura#391Senior Female0:17:13 8.9 16017
DALLINGER Dean#580Junior Male0:17:13 8.9 16121
FRANSEN Kable#22Senior Male0:17:16 8.9 16289
NICHOLSON Peter#607Male 50+0:17:18 8.8 1639
O'SHEA Kelly Anne#426Junior Female0:17:22 8.8 1648
MILLIS Chris#124Senior Male0:17:24 8.8 16590
SPAKIN Robert#53240-49 Male0:17:25 8.8 16620
CREAN Angie#316Senior Female0:17:26 8.8 16718
STEWART Andrew#131Senior Male0:17:30 8.7 16891
TROJAN Lara#329Senior Female0:17:30 8.7 16919
MOSSE Kim#368Senior Female0:17:30 8.7 17020
BILTON David#161Senior Male0:17:31 8.7 17192
O'SHEA Angela#379Senior Female0:17:32 8.7 17221
THURGOOD Neville#32Senior Male0:17:33 8.7 17393
MATTHEWS Jack#509Junior Male0:17:34 8.7 17422
VEALL Beth#394Senior Female0:17:36 8.7 17522
WILLIAMSON David#42Senior Male0:17:37 8.7 17694
NAISMITH Darren#153Senior Male0:17:37 8.7 17795
CLOSE Daniele#420Senior Female0:17:37 8.7 17823
WHITE Sharon#435Senior Female0:17:38 8.7 17924
SMITH Andrew#34Senior Male0:17:39 8.7 18096
BUCCI Tina#382Senior Female0:17:39 8.7 18125
ELLUL Stephen#111Senior Male0:17:41 8.7 18297
STOOPMAN Joanne#341Senior Female0:17:42 8.6 18326
NICHOLSON James#615Junior Male0:17:42 8.6 18423
LARSON Paul#125Senior Male0:17:43 8.6 18598
MOSSE Peter#61340-49 Male0:17:44 8.6 18621
JACKSON Katherine#400Senior Female0:17:44 8.6 18727
ORSINI Raffaele#59340-49 Male0:17:45 8.6 18822
DAVIE Angie#35340-49 Female0:17:46 8.6 1892
CARTER Lachlan#507Junior Male0:17:46 8.6 19024
DALLINGER Brian#554Male 50+0:17:49 8.6 19110
CANN Lara#322Senior Female0:17:53 8.6 19228
COLE Nicholas#187Senior Male0:17:54 8.5 19399
JALANDO-ON Rio#19Senior Male0:17:55 8.5 194100
BEOVICH Mark#98Senior Male0:17:55 8.5 195101
BROWN Matthew#146Senior Male0:17:56 8.5 196102
SUND Dale#33Senior Male0:17:56 8.5 197103
FUERY Steve#67Senior Male0:17:57 8.5 198104
IRELAND Marnie#330Senior Female0:17:57 8.5 19929
TAYLOR Shelley#342Senior Female0:17:57 8.5 20030
DAVISON Ros#365Senior Female0:17:59 8.5 20131
GRIFFITHS John#148Senior Male0:18:00 8.5 202105
MADDEN Bryan#188Senior Male0:18:00 8.5 203106
CHISHOLM Kevin#172Senior Male0:18:00 8.5 204107
DAFF Geoff#55540-49 Male0:18:01 8.5 20523
ANDERSON Helen#386Senior Female0:18:03 8.5 20632
O'CONNOR Mich#318Senior Female0:18:04 8.5 20733
MC FEE Andy#166Senior Male0:18:05 8.5 208108
MANNING John#65Senior Male0:18:06 8.5 209109
BUTTERWORTH Bizzy#324Senior Female0:18:06 8.5 21034
KEADY Richard#622Male 50+0:18:06 8.5 21111
VERNON Tye#118Senior Male0:18:07 8.4 212110
EDWARD Joff#138Senior Male0:18:09 8.4 213111
ROBERTS Brett#107Senior Male0:18:15 8.4 214112
SUNDERLAND Peter#57340-49 Male0:18:15 8.4 21524
TURK Paul#49Senior Male0:18:17 8.4 216113
O'SHANNESSY Peter#60340-49 Male0:18:17 8.4 21725
PORTCH Deane#60140-49 Male0:18:17 8.4 21826
HILL Jessica#311Junior Female0:18:17 8.4 2199
OVER Travis#143Senior Male0:18:18 8.4 220114
GORSUCH Scott#68Senior Male0:18:19 8.4 221115
MARRIOT Mary#323Senior Female0:18:20 8.3 22235
TACHEFF Brian#57840-49 Male0:18:21 8.3 22327
BRAY Anthony#181Senior Male0:18:22 8.3 224116
TAYLOR Trent#506Junior Male0:18:22 8.3 22525
CHAPLIN Kirilee#308Junior Female0:18:22 8.3 22610
SHADCOLT Ian#51940-49 Male0:18:22 8.3 22728
VISARRA Andre#136Senior Male0:18:23 8.3 228117
NEWTON-HOARE Bonnie#348Senior Female0:18:23 8.3 22936
BEHRSIN Elyce#414Junior Female0:18:26 8.3 23011
HUGHES Caitlin#410Junior Female0:18:28 8.3 23112
JONES Paul#52740-49 Male0:18:30 8.3 23229
ILSLEY Ross#52240-49 Male0:18:34 8.2 23330
KERR Lewis#504Junior Male0:18:35 8.2 23426
DURAND Tony#51640-49 Male0:18:36 8.2 23531
HEAD Lynton#167Senior Male0:18:38 8.2 236118
MERRETT Janelle#425Junior Female0:18:38 8.2 23713
DEANS Ian#60840-49 Male0:18:39 8.2 23832
RYAN Chris#189Senior Male0:18:40 8.2 239119
DIXON Narelle#440Senior Female0:18:41 8.2 24037
KAMINSKI Peter#52040-49 Male0:18:41 8.2 24133
CARROLL Steven#157Senior Male0:18:43 8.2 242120
ANDERSON Garry#535Male 50+0:18:43 8.2 24312
O'HEA Esther#388Junior Female0:18:44 8.2 24414
ASHWORTH Danielle#407Senior Female0:18:45 8.2 24538
COX Bill#61040-49 Male0:18:46 8.2 24634
WONNACOTT Lee#625Junior Male0:18:48 8.1 24727
HUNT Greg#184Senior Male0:18:51 8.1 248121
MACLAREN Lynne#396Senior Female0:18:51 8.1 24939
HOSKING William#583Junior Male0:18:52 8.1 25028
MATTHEWS Robert#552Male 50+0:18:53 8.1 25113
ELLIS Michael#547Male 50+0:18:54 8.1 25214
IGLESIAS Philip#40Senior Male0:18:55 8.1 253122
MEAGHER Kerryn#306Junior Female0:18:55 8.1 25415
LEDDIN Peter#61240-49 Male0:18:56 8.1 25535
WOODERSON Stephen#41Senior Male0:18:56 8.1 256123
DRISCOLL Melanie#340Senior Female0:18:58 8.1 25740
STEINICKE Angus#137Senior Male0:18:59 8.1 258124
MANNING Simon#56140-49 Male0:18:59 8.1 25936
GRAY Anthony#51840-49 Male0:19:00 8.1 26037
JAMIESON Mark#57440-49 Male0:19:00 8.1 26138
BULL Deanne#429Senior Female0:19:01 8 26241
MC CARTHY Barry#27Senior Male0:19:03 8 263125
GARNHAM Nick#20Senior Male0:19:04 8 264126
TRAHAIR Madeline#349Senior Female0:19:05 8 26542
HALL Kerri#381Senior Female0:19:07 8 26643
SUTHERLAND Michael#147Senior Male0:19:08 8 267127
PETERS Brittany#313Senior Female0:19:08 8 26844
DANIEL Ryan#180Senior Male0:19:09 8 269128
KIRSCH Simone#320Senior Female0:19:09 8 27045
COLLIS Dan#160Senior Male0:19:11 8 271129
PAPWORTH Troy#108Senior Male0:19:12 8 272130
SCHNEIDER Raynond#97Senior Male0:19:14 8 273131
TAYLOR Graham#58740-49 Male0:19:15 7.9 27439
TRAHAIR Mark#60Senior Male0:19:15 7.9 275132
MILLER Lisa#42240-49 Female0:19:16 7.9 2763
SHEPPARO Sam#119Senior Male0:19:18 7.9 277133
NASH Steven#72Senior Male0:19:18 7.9 278134
FOSTIN Josh#192Senior Male0:19:18 7.9 279135
SALERNO Peter#109Senior Male0:19:24 7.9 280136
GOLDSWORTHY Natalie#337Senior Female0:19:25 7.9 28146
MOWAIT Rebecca#345Senior Female0:19:26 7.9 28247
CHALLINOR Michael#191Senior Male0:19:27 7.9 283137
MUDGE Bradley#21Senior Male0:19:27 7.9 284138
COLLIS Tim#175Senior Male0:19:28 7.9 285139
NICHOLSON Garry#57740-49 Male0:19:29 7.9 28640
O'DONOHUE Mark#53040-49 Male0:19:29 7.9 28741
MACAULEY Rob#551Male 50+0:19:31 7.8 28815
WOOD Anthony#95Senior Male0:19:34 7.8 289140
ZWIERSEN Luke#101Senior Male0:19:34 7.8 290141
O'HARA Cameron#104Senior Male0:19:34 7.8 291142
MULLER Dale#14Senior Male0:19:35 7.8 292143
PORTER Michael#60240-49 Male0:19:35 7.8 29342
BOURKE Peter#185Senior Male0:19:37 7.8 294144
TREASURE Alex#505Junior Male0:19:39 7.8 29529
FLANNERY Andrew#55840-49 Male0:19:41 7.8 29643
KRUMMINS Emma#424Junior Female0:19:46 7.7 29716
MOUNTER Brent#105Senior Male0:19:47 7.7 298145
ROUND Belinda#335Senior Female0:19:47 7.7 29948
WILLIAMS Elyssa#370Senior Female0:19:48 7.7 30049
MITCHELL Ian#606Junior Male0:19:48 7.7 30130
GUERRA Joe#120Senior Male0:19:49 7.7 302146
WILLAMS Ian#30Senior Male0:19:50 7.7 303147
ISSELL Claire#405Junior Female0:19:52 7.7 30417
CARIAS Joe#58540-49 Male0:19:52 7.7 30544
CHAMBERS Paula#417Senior Female0:19:54 7.7 30650
DURAND Lou#35040-49 Female0:19:56 7.7 3074
CAMPBELL Craig#151Senior Male0:19:56 7.7 308148
HOOPER Mick#52440-49 Male0:19:57 7.7 30945
CREAN Peter#534Male 50+0:19:57 7.7 31016
RENNIE Chris#186Senior Male0:20:00 7.6 311149
BULL Lyndall#392Senior Female0:20:00 7.6 31251
HUGHES Bronwyn#41140-49 Female0:20:02 7.6 3135
HOSKING Tiz#37640-49 Female0:20:06 7.6 3146
KRUGER Andrew#154Senior Male0:20:08 7.6 315150
HUSSEY Mick#62640-49 Male0:20:08 7.6 31646
BRIGLIA Tony#545Male 50+0:20:14 7.6 31717
HOSKING Robert#584Male 50+0:20:15 7.6 31818
PARKER Glen#599Junior Male0:20:16 7.5 31931
HILL Luke#81Senior Male0:20:17 7.5 320151
WILLIAMS Steve#51740-49 Male0:20:17 7.5 32147
WETZER David#91Senior Male0:20:19 7.5 322152
CURRIE Brenden#52140-49 Male0:20:20 7.5 32348
KELLY John#51540-49 Male0:20:22 7.5 32449
DE GROOT Roger#135Senior Male0:20:24 7.5 325153
DEVINE Shelley#403Senior Female0:20:24 7.5 32652
CRAIKE Shaun#501Junior Male0:20:27 7.5 32732
LOMBARD Peter#59040-49 Male0:20:27 7.5 32850
WHELAN Mick#62740-49 Male0:20:28 7.5 32951
DUKE Lisa#332Senior Female0:20:28 7.5 33053
MC LEOD Jon#61Senior Male0:20:30 7.5 331154
VAN BREEMEN Deanne#437Senior Female0:20:31 7.5 33254
CHASTON Pete#59740-49 Male0:20:32 7.5 33352
DEVINE Allison#40240-49 Female0:20:32 7.5 3347
ADAMS Murray#618Male 50+0:20:33 7.4 33519
LYFORD Mark#53340-49 Male0:20:39 7.4 33653
MC GREGOR Shannon#346Senior Female0:20:43 7.4 33755
WALLACE Alex#88Senior Male0:20:43 7.4 338155
FRANGALAS Gary#13Senior Male0:20:43 7.4 339156
JOHNSON Alexandra#433Senior Female0:20:43 7.4 34056
MUJICA Mirko#96Senior Male0:20:45 7.4 341157
MULLER Nigel#23Senior Male0:20:49 7.3 342158
BUCKERY Pat#61740-49 Male0:20:50 7.3 34354
DROHAN Margaret#37540-49 Female0:20:52 7.3 3448
SMITH Paul#570Male 50+0:20:53 7.3 34520
MC COY Barry#59540-49 Male0:20:54 7.3 34655
PARKER Gavin#598Junior Male0:20:57 7.3 34733
ALLWOOD Nick#10Senior Male0:20:57 7.3 348159
DICKSON Karyn#38740-49 Female0:21:03 7.3 3499
DE WILDT Michael#64Senior Male0:21:04 7.3 350160
HOWE Debra#395Senior Female0:21:08 7.2 35157
BRADY Graeme#63040-49 Male0:21:08 7.2 35256
OVCAR Rodney#24Senior Male0:21:13 7.2 353161
ESNOUF John#586Male 50+0:21:13 7.2 35421
LENZ Christophe#58140-49 Male0:21:14 7.2 35557
MUJICA Venessa#321Senior Female0:21:15 7.2 35658
SYME John#511Junior Male0:21:15 7.2 35734
BRAY Belinda#434Senior Female0:21:17 7.2 35859
MORRISON Kerry#35440-49 Female0:21:20 7.2 35910
SEMKEN Melissa#374Junior Female0:21:22 7.2 36018
ZIMMERMAN Kirrily#430Senior Female0:21:32 7.1 36160
MC KIERNAN Leigh#66Senior Male0:21:34 7.1 362162
TUCKER Eddie#90Senior Male0:21:34 7.1 363163
MARTIN Steve#103Senior Male0:21:36 7.1 364164
ANTHONY Michael#43Senior Male0:21:39 7.1 365165
MACAULEY Jessica#328Senior Female0:21:39 7.1 36661
WALKER Christine#360Female 50+0:21:41 7.1 3671
PATON Wendy#325Senior Female0:21:42 7.1 36862
HALLIDAY Craig#52840-49 Male0:21:45 7 36958
FISHER Simon#176Senior Male0:21:47 7 370166
FEENEY Kirstie#36440-49 Female0:21:50 7 37111
SYME Michael#52940-49 Male0:21:52 7 37259
FITZSIMONS Kathleen#421Senior Female0:21:53 7 37363
TREASURE Greg#553Male 50+0:21:54 7 37422
HUMPHREYS Reece#114Senior Male0:21:55 7 375167
REDFERN Lloyd#537Male 50+0:22:00 7 37623
HOPKINS Barry#57140-49 Male0:22:01 6.9 37760
MILLER Claire#44140-49 Female0:22:01 6.9 37812
TREWEEK Andrea#397Senior Female0:22:04 6.9 37964
BROOKS Barbera#359Female 50+0:22:04 6.9 3802
ALLEN Brooke#347Senior Female0:22:08 6.9 38165
SIBTHORPE Chris#100Senior Male0:22:09 6.9 382168
VELLIN Elise#436Senior Female0:22:12 6.9 38366
STAIOS Theo#122Senior Male0:22:14 6.9 384169
CAPLE David#56640-49 Male0:22:17 6.9 38561
GRIFFITHS Ian#58240-49 Male0:22:19 6.9 38662
MC NEILL Murray#59640-49 Male0:22:20 6.9 38763
CURTIS Susan#317Senior Female0:22:23 6.8 38867
BRIGLIA Alessandra#389Senior Female0:22:25 6.8 38968
SARAGHI Jiselle#36640-49 Female0:22:27 6.8 39013
TUCKER John#99Senior Male0:22:29 6.8 391170
NICHOLSON Ron#538Male 50+0:22:30 6.8 39224
MC CLEOD Beth#336Senior Female0:22:31 6.8 39369
HENDY Robert#29Senior Male0:22:37 6.8 394171
HUMPHRIES Caroline#339Senior Female0:22:48 6.7 39570
CANDIAN Tara#431Junior Female0:22:48 6.7 39619
FINNEGAN Sarah#333Senior Female0:22:49 6.7 39771
CARSON Angie#399Senior Female0:22:55 6.7 39872
CANDIAN Haylie#432Senior Female0:22:57 6.7 39973
VAN BRUMMELEN Sandra#35240-49 Female0:22:59 6.7 40014
WEBSTER Lisa#344Senior Female0:23:05 6.6 40174
LLOYD Greg#62Senior Male0:23:17 6.6 402172
BUTLER Brenden#565Male 50+0:23:21 6.6 40325
KENNEDY Janine#319Senior Female0:23:24 6.5 40475
HAUSWIRTH Scott#106Senior Male0:23:29 6.5 405173
KEWMING Robyn#41940-49 Female0:23:31 6.5 40615
MC CARTHY Trish#41340-49 Female0:23:45 6.4 40716
FLAHERTY Shona#398Senior Female0:24:09 6.3 40876
JOHNSTON Brian#55940-49 Male0:24:11 6.3 40964
CADD Janelle#406Junior Female0:24:19 6.3 41020
RUSHEN Diane#35640-49 Female0:24:24 6.3 41117
WEIR Warren#560Male 50+0:24:24 6.3 41226
GOOEY Janette#404Female 50+0:24:32 6.2 4133
GEDDES Nicole#393Senior Female0:24:43 6.2 41477
DRENNAN Kelly#438Senior Female0:25:00 6.1 41578
STEPHEN James#182Senior Male0:25:08 6.1 416174
NICHOLSON Leigh#37740-49 Female0:25:22 6 41718
BEWLEY Rikki#361Female 50+0:25:51 5.9 4184
O'HAGAN Jacinta#415Senior Female0:25:57 5.9 41979
GROENHVIZEN Frits#541Male 50+0:26:27 5.8 42027
O'HAGAN Anne-Marie#416Senior Female0:26:31 5.8 42180
WHITE Alan#629Male 50+0:26:33 5.8 42228
SPEAKMAN Jan#357Female 50+0:26:37 5.7 4235
BURNHAM Robert#536Male 50+0:27:02 5.7 42429
DEMEDIUK Therese#37240-49 Female0:27:11 5.6 42519
KONTOGOURIS Earlene#362Female 50+0:27:17 5.6 4266
JONES Gelnys#39040-49 Female0:27:41 5.5 42720
FORRESTER Jade#409Senior Female0:27:45 5.5 42881
MAYES Stephen#544Male 50+0:27:57 5.5 42930
HUGHES Garry#540Male 50+0:27:59 5.5 43031
PARKER Margaret#36740-49 Female0:28:36 5.3 43121
FROST Kerry#363Female 50+0:30:23 5 4327
COLEMAN Mark#62040-49 Male0:31:09 4.9 43365
O'SHAUNASSY Dianne#338Senior Female0:31:53 4.8 43482
SHEPPARD Steven#121Senior Male0:32:33 4.7 435175
MITCHELL Jill#358Female 50+0:38:38 4 4368
COOK Wanda#38540-49 Female0:38:38 4 43722
CASTLE Robyn#439Senior Female0:38:41 4 43883